createdAt,value
2023-03-04T00:00:24.395Z,32.63
2023-03-04T00:02:52.718Z,31.20
2023-03-04T00:05:21.048Z,42.23
2023-03-04T00:07:50.783Z,42.73
2023-03-04T00:10:19.860Z,54.80
2023-03-04T00:12:48.194Z,37.70
2023-03-04T00:15:16.582Z,36.60
2023-03-04T00:17:46.280Z,33.57
2023-03-04T00:20:15.316Z,35.40
2023-03-04T00:22:43.622Z,35.40
2023-03-04T00:25:13.383Z,35.67
2023-03-04T00:27:41.651Z,39.53
2023-03-04T00:30:11.190Z,29.90
2023-03-04T00:32:39.687Z,37.17
2023-03-04T00:35:08.925Z,35.53
2023-03-04T00:37:37.270Z,34.57
2023-03-04T00:40:06.726Z,35.43
2023-03-04T00:42:36.461Z,37.70
2023-03-04T00:45:05.042Z,38.93
2023-03-04T00:47:33.423Z,35.33
2023-03-04T00:50:01.812Z,39.27
2023-03-04T00:52:30.134Z,36.00
2023-03-04T00:54:58.461Z,40.73
2023-03-04T00:57:26.866Z,38.43
2023-03-04T00:59:56.604Z,37.50
2023-03-04T01:02:24.951Z,38.50
2023-03-04T01:04:53.345Z,32.83
2023-03-04T01:07:21.725Z,30.50
2023-03-04T01:09:50.065Z,28.60
2023-03-04T01:12:18.322Z,22.07
2023-03-04T01:14:46.667Z,21.50
2023-03-04T01:17:16.814Z,24.57
2023-03-04T01:19:45.232Z,23.63
2023-03-04T01:22:15.198Z,25.57
2023-03-04T01:24:43.549Z,21.83
2023-03-04T01:27:12.231Z,19.80
2023-03-04T01:29:40.887Z,19.40
2023-03-04T01:32:09.465Z,19.17
2023-03-04T01:34:39.189Z,21.47
2023-03-04T01:37:07.520Z,23.53
2023-03-04T01:39:37.206Z,23.93
2023-03-04T01:42:05.664Z,21.83
2023-03-04T01:44:34.552Z,23.73
2023-03-04T01:47:03.094Z,24.97
2023-03-04T01:49:31.557Z,24.17
2023-03-04T01:52:01.375Z,21.67
2023-03-04T01:54:29.857Z,27.17
2023-03-04T01:57:00.392Z,26.13
2023-03-04T01:59:32.661Z,26.10
2023-03-04T02:02:02.412Z,27.13
2023-03-04T02:04:34.431Z,26.83
2023-03-04T02:07:05.378Z,22.87
2023-03-04T02:09:35.854Z,27.60
2023-03-04T02:12:06.811Z,29.20
2023-03-04T02:14:35.260Z,24.00
2023-03-04T02:17:03.588Z,27.73
2023-03-04T02:19:42.906Z,26.83
2023-03-04T02:22:12.717Z,29.13
2023-03-04T02:24:45.199Z,27.73
2023-03-04T02:27:15.000Z,32.10
2023-03-04T02:29:43.518Z,27.47
2023-03-04T02:32:13.665Z,30.43
2023-03-04T02:34:46.984Z,28.70
2023-03-04T02:37:16.071Z,28.47
2023-03-04T02:39:47.364Z,28.60
2023-03-04T02:42:20.510Z,28.87
2023-03-04T02:44:50.663Z,31.93
2023-03-04T02:47:20.601Z,42.43
2023-03-04T02:49:50.030Z,42.53
2023-03-04T02:52:21.831Z,34.27
2023-03-04T02:54:50.576Z,44.53
2023-03-04T02:57:20.324Z,36.80
2023-03-04T02:59:48.705Z,38.03
2023-03-04T03:02:17.006Z,34.30
2023-03-04T03:04:45.326Z,38.70
2023-03-04T03:07:13.703Z,44.23
2023-03-04T03:09:42.102Z,39.73
2023-03-04T03:12:10.546Z,37.73
2023-03-04T03:14:40.290Z,34.73
2023-03-04T03:17:08.628Z,35.07
2023-03-04T03:19:37.009Z,33.37
2023-03-04T03:22:05.516Z,34.70
2023-03-04T03:24:33.842Z,33.50
2023-03-04T03:27:02.318Z,35.93
2023-03-04T03:29:30.640Z,33.93
2023-03-04T03:32:00.426Z,35.50
2023-03-04T03:34:29.034Z,32.07
2023-03-04T03:36:57.365Z,35.57
2023-03-04T03:39:25.710Z,43.67
2023-03-04T03:41:54.062Z,42.37
2023-03-04T03:44:22.594Z,38.77
2023-03-04T03:46:50.972Z,41.10
2023-03-04T03:49:20.682Z,45.63
2023-03-04T03:51:49.169Z,40.43
2023-03-04T03:54:17.557Z,42.43
2023-03-04T03:56:45.901Z,45.27
2023-03-04T03:59:14.169Z,37.07
2023-03-04T04:01:42.863Z,44.03
2023-03-04T04:04:11.354Z,41.27
2023-03-04T04:06:41.051Z,41.53
2023-03-04T04:09:09.450Z,34.30
2023-03-04T04:11:37.839Z,41.03
2023-03-04T04:14:06.155Z,36.77
2023-03-04T04:16:34.520Z,34.50
2023-03-04T04:19:02.946Z,37.60
2023-03-04T04:21:31.246Z,34.00
2023-03-04T04:24:01.057Z,38.57
2023-03-04T04:26:29.369Z,35.63
2023-03-04T04:28:57.672Z,37.00
2023-03-04T04:31:26.037Z,42.63
2023-03-04T04:33:54.336Z,36.80
2023-03-04T04:36:22.701Z,38.67
2023-03-04T04:38:51.225Z,36.17
2023-03-04T04:41:24.498Z,36.80
2023-03-04T04:43:53.110Z,40.13
2023-03-04T04:46:22.129Z,49.50
2023-03-04T04:48:50.605Z,34.93
2023-03-04T04:51:18.985Z,37.00
2023-03-04T04:53:47.338Z,41.00
2023-03-04T04:56:18.233Z,32.93
2023-03-04T04:58:49.426Z,37.47
2023-03-04T05:01:18.361Z,34.83
2023-03-04T05:03:46.742Z,37.10
2023-03-04T05:06:15.252Z,43.77
2023-03-04T05:08:43.637Z,43.57
2023-03-04T05:11:12.148Z,38.37
2023-03-04T05:13:40.606Z,41.80
2023-03-04T05:16:10.984Z,48.70
2023-03-04T05:18:39.473Z,43.60
2023-03-04T05:21:08.178Z,42.70
2023-03-04T05:23:39.531Z,44.80
2023-03-04T05:26:09.450Z,49.17
2023-03-04T05:28:38.058Z,43.57
2023-03-04T05:31:07.251Z,40.33
2023-03-04T05:33:37.089Z,44.20
2023-03-04T05:36:07.080Z,37.70
2023-03-04T05:38:35.484Z,41.43
2023-03-04T05:41:05.836Z,46.23
2023-03-04T05:43:36.116Z,37.67
2023-03-04T05:46:05.361Z,36.10
2023-03-04T05:48:33.702Z,46.87
2023-03-04T05:51:03.748Z,44.87
2023-03-04T05:53:32.191Z,41.63
2023-03-04T05:56:00.668Z,41.40
2023-03-04T05:58:29.000Z,41.97
2023-03-04T06:01:01.036Z,42.50
2023-03-04T06:03:29.500Z,43.67
2023-03-04T06:05:58.230Z,38.37
2023-03-04T06:08:29.097Z,41.00
2023-03-04T06:10:59.147Z,40.90
2023-03-04T06:13:27.975Z,42.07
2023-03-04T06:15:57.322Z,39.10
2023-03-04T06:18:27.090Z,40.70
2023-03-04T06:20:58.707Z,36.50
2023-03-04T06:23:29.488Z,36.80
2023-03-04T06:25:59.768Z,34.80
2023-03-04T06:28:28.339Z,44.97
2023-03-04T06:30:57.984Z,36.47
2023-03-04T06:33:26.572Z,35.97
2023-03-04T06:35:56.787Z,32.40
2023-03-04T06:38:25.288Z,35.90
2023-03-04T06:40:57.466Z,38.10
2023-03-04T06:43:26.428Z,34.00
2023-03-04T06:45:54.788Z,40.93
2023-03-04T06:48:23.084Z,39.93
2023-03-04T06:50:51.632Z,40.23
2023-03-04T06:53:21.338Z,45.60
2023-03-04T06:55:49.786Z,47.20
2023-03-04T06:58:19.729Z,54.17
2023-03-04T07:00:48.361Z,47.03
2023-03-04T07:03:16.778Z,47.37
2023-03-04T07:05:45.443Z,48.57
2023-03-04T07:08:13.894Z,53.10
2023-03-04T07:10:42.443Z,39.17
2023-03-04T07:13:10.790Z,45.57
2023-03-04T07:15:40.582Z,44.70
2023-03-04T07:18:09.690Z,41.80
2023-03-04T07:20:38.485Z,35.60
2023-03-04T07:23:06.791Z,38.20
2023-03-04T07:25:35.103Z,34.50
2023-03-04T07:28:03.614Z,34.03
2023-03-04T07:30:32.398Z,36.67
2023-03-04T07:33:02.229Z,32.87
2023-03-04T07:35:30.590Z,31.57
2023-03-04T07:37:59.100Z,35.17
2023-03-04T07:40:27.397Z,37.67
2023-03-04T07:42:56.994Z,35.77
2023-03-04T07:45:26.353Z,39.50
2023-03-04T07:47:55.471Z,35.43
2023-03-04T07:50:27.400Z,33.40
2023-03-04T07:52:55.781Z,31.67
2023-03-04T07:55:24.073Z,29.63
2023-03-04T07:57:52.365Z,32.53
2023-03-04T08:00:21.804Z,30.40
2023-03-04T08:02:50.239Z,35.20
2023-03-04T08:05:18.703Z,30.90
2023-03-04T08:07:48.399Z,29.40
2023-03-04T08:10:16.787Z,26.57
2023-03-04T08:12:45.108Z,32.90
2023-03-04T08:15:13.878Z,30.80
2023-03-04T08:17:42.180Z,29.70
2023-03-04T08:20:12.214Z,34.63
2023-03-04T08:22:40.511Z,30.60
2023-03-04T08:25:11.008Z,33.30
2023-03-04T08:27:39.351Z,33.47
2023-03-04T08:30:08.767Z,34.87
2023-03-04T08:32:37.107Z,30.93
2023-03-04T08:35:06.122Z,32.77
2023-03-04T08:37:34.454Z,34.27
2023-03-04T08:40:02.965Z,35.70
2023-03-04T08:42:32.723Z,31.07
2023-03-04T08:45:01.021Z,31.87
2023-03-04T08:47:29.428Z,37.37
2023-03-04T08:49:58.677Z,33.97
2023-03-04T08:52:27.371Z,37.97
2023-03-04T08:54:55.660Z,36.27
2023-03-04T08:57:24.475Z,34.83
2023-03-04T08:59:54.362Z,38.47
2023-03-04T09:02:22.665Z,38.67
2023-03-04T09:04:51.009Z,36.83
2023-03-04T09:07:19.492Z,35.20
2023-03-04T09:09:48.172Z,31.73
2023-03-04T09:12:16.567Z,34.43
2023-03-04T09:14:44.996Z,31.90
2023-03-04T09:17:14.996Z,31.80
2023-03-04T09:19:43.376Z,34.07
2023-03-04T09:22:11.724Z,36.90
2023-03-04T09:24:40.088Z,41.90
2023-03-04T09:27:08.567Z,33.70
2023-03-04T09:29:36.884Z,29.17
2023-03-04T09:32:05.351Z,31.63
2023-03-04T09:34:35.080Z,37.13
2023-03-04T09:37:03.557Z,28.83
2023-03-04T09:39:31.883Z,28.00
2023-03-04T09:42:01.310Z,28.70
2023-03-04T09:44:32.703Z,31.43
2023-03-04T09:47:07.689Z,30.97
2023-03-04T09:49:42.069Z,35.00
2023-03-04T09:52:21.382Z,38.60
2023-03-04T09:55:05.164Z,30.10
2023-03-04T09:57:47.231Z,30.00
2023-03-04T10:00:20.416Z,30.13
2023-03-04T10:03:06.624Z,23.53
2023-03-04T10:05:40.704Z,24.17
2023-03-04T10:08:26.107Z,29.67
2023-03-04T10:10:58.156Z,25.83
2023-03-04T10:13:36.993Z,23.33
2023-03-04T10:16:10.728Z,26.60
2023-03-04T10:18:43.881Z,36.80
2023-03-04T10:21:21.580Z,31.50
2023-03-04T10:23:50.892Z,27.00
2023-03-04T10:26:23.144Z,32.70
2023-03-04T10:28:51.891Z,29.40
2023-03-04T10:31:29.154Z,29.63
2023-03-04T10:33:57.794Z,30.57
2023-03-04T10:36:41.031Z,24.87
2023-03-04T10:39:12.109Z,22.53
2023-03-04T10:41:45.733Z,26.60
2023-03-04T10:44:18.497Z,22.33
2023-03-04T10:46:48.082Z,24.10
2023-03-04T10:49:18.360Z,23.00
2023-03-04T10:51:49.502Z,22.93
2023-03-04T10:54:27.399Z,24.17
2023-03-04T10:57:00.125Z,19.63
2023-03-04T10:59:41.314Z,16.67
2023-03-04T11:02:19.614Z,17.00
2023-03-04T11:04:53.686Z,19.43
2023-03-04T11:07:25.040Z,19.70
2023-03-04T11:09:53.620Z,18.70
2023-03-04T11:12:23.705Z,15.73
2023-03-04T11:14:53.592Z,19.20
2023-03-04T11:17:25.171Z,16.10
2023-03-04T11:19:58.760Z,17.10
2023-03-04T11:22:31.635Z,23.70
2023-03-04T11:25:04.078Z,11.50
2023-03-04T11:27:42.871Z,15.07
2023-03-04T11:30:27.079Z,16.07
2023-03-04T11:33:04.045Z,15.33
2023-03-04T11:35:36.152Z,13.97
2023-03-04T11:38:10.737Z,13.60
2023-03-04T11:40:45.472Z,13.90
2023-03-04T11:43:19.119Z,15.73
2023-03-04T11:46:19.799Z,18.60
2023-03-04T11:48:55.619Z,13.07
2023-03-04T11:51:34.573Z,14.63
2023-03-04T11:54:17.510Z,10.97
2023-03-04T11:56:47.210Z,13.10
2023-03-04T11:59:46.852Z,18.03
2023-03-04T12:02:18.400Z,14.63
2023-03-04T12:05:18.695Z,18.97
2023-03-04T12:08:26.407Z,12.43
2023-03-04T12:11:05.110Z,8.50
2023-03-04T12:14:02.867Z,10.60
2023-03-04T12:16:46.294Z,9.17
2023-03-04T12:19:26.417Z,18.83
2023-03-04T12:22:09.364Z,10.53
2023-03-04T12:25:10.929Z,15.10
2023-03-04T12:27:48.587Z,14.97
2023-03-04T12:30:40.146Z,12.17
2023-03-04T12:33:21.312Z,18.97
2023-03-04T12:36:01.302Z,16.80
2023-03-04T12:38:45.030Z,16.50
2023-03-04T12:41:31.524Z,17.43
2023-03-04T12:44:11.848Z,18.10
2023-03-04T12:46:53.036Z,17.57
2023-03-04T12:49:38.381Z,23.80
2023-03-04T12:52:16.579Z,17.77
2023-03-04T12:54:49.454Z,18.50
2023-03-04T12:57:21.108Z,21.13
2023-03-04T12:59:59.399Z,23.07
2023-03-04T13:02:54.106Z,20.30
2023-03-04T13:05:37.788Z,24.33
2023-03-04T13:08:20.348Z,22.80
2023-03-04T13:10:48.963Z,22.63
2023-03-04T13:13:38.126Z,26.47
2023-03-04T13:16:28.596Z,24.37
2023-03-04T13:18:57.220Z,23.63
2023-03-04T13:21:27.097Z,28.43
2023-03-04T13:23:56.699Z,27.23
2023-03-04T13:26:30.527Z,29.07
2023-03-04T13:29:37.071Z,28.33
2023-03-04T13:32:12.512Z,28.30
2023-03-04T13:34:50.046Z,28.40
2023-03-04T13:37:33.318Z,29.87
2023-03-04T13:40:33.330Z,23.50
2023-03-04T13:43:26.475Z,28.23
2023-03-04T13:45:54.955Z,26.93
2023-03-04T13:48:32.889Z,29.80
2023-03-04T13:51:01.326Z,26.20
2023-03-04T13:53:40.351Z,25.27
2023-03-04T13:56:31.467Z,29.00
2023-03-04T13:59:25.298Z,28.87
2023-03-04T14:02:01.711Z,28.67
2023-03-04T14:04:34.871Z,31.27
2023-03-04T14:07:17.860Z,28.33
2023-03-04T14:09:57.595Z,28.10
2023-03-04T14:12:27.612Z,24.97
2023-03-04T14:14:58.097Z,28.53
2023-03-04T14:17:29.309Z,26.63
2023-03-04T14:20:00.658Z,25.27
2023-03-04T14:22:31.870Z,26.00
2023-03-04T14:25:03.265Z,28.20
2023-03-04T14:27:33.194Z,27.87
2023-03-04T14:30:02.871Z,22.57
2023-03-04T14:32:32.132Z,21.47
2023-03-04T14:35:05.615Z,54.83
2023-03-04T14:37:43.997Z,36.10
2023-03-04T14:40:22.309Z,24.67
2023-03-04T14:42:56.152Z,25.03
2023-03-04T14:45:25.230Z,23.40
2023-03-04T14:47:58.395Z,16.30
2023-03-04T14:50:28.101Z,17.17
2023-03-04T14:53:15.049Z,17.53
2023-03-04T14:55:57.808Z,19.00
2023-03-04T14:58:28.865Z,21.70
2023-03-04T15:01:14.323Z,16.80
2023-03-04T15:03:45.512Z,18.80
2023-03-04T15:06:23.562Z,25.77
2023-03-04T15:08:59.257Z,15.03
2023-03-04T15:11:29.645Z,16.23
2023-03-04T15:13:59.789Z,17.33
2023-03-04T15:16:30.738Z,18.10
2023-03-04T15:19:02.366Z,17.80
2023-03-04T15:21:37.342Z,22.60
2023-03-04T15:24:07.047Z,16.63
2023-03-04T15:26:39.086Z,17.20
2023-03-04T15:29:15.882Z,19.57
2023-03-04T15:31:45.119Z,15.80
2023-03-04T15:34:15.448Z,16.03
2023-03-04T15:36:48.571Z,16.23
2023-03-04T15:39:19.435Z,16.97
2023-03-04T15:41:48.526Z,14.77
2023-03-04T15:44:17.143Z,17.17
2023-03-04T15:46:45.469Z,17.30
2023-03-04T15:49:14.024Z,32.40
2023-03-04T15:51:42.793Z,26.13
2023-03-04T15:54:15.206Z,43.43
2023-03-04T15:56:44.243Z,26.10
2023-03-04T15:59:14.433Z,24.70
2023-03-04T16:01:42.861Z,39.97
2023-03-04T16:04:14.616Z,43.40
2023-03-04T16:06:44.013Z,44.80
2023-03-04T16:09:16.897Z,45.47
2023-03-04T16:11:47.781Z,28.73
2023-03-04T16:14:17.226Z,28.77
2023-03-04T16:16:47.079Z,19.70
2023-03-04T16:19:15.562Z,20.60
2023-03-04T16:21:43.873Z,27.67
2023-03-04T16:24:18.471Z,19.57
2023-03-04T16:26:47.453Z,18.10
2023-03-04T16:29:16.948Z,19.17
2023-03-04T16:31:45.490Z,16.93
2023-03-04T16:34:14.225Z,13.13
2023-03-04T16:36:42.714Z,18.63
2023-03-04T16:39:20.875Z,11.60
2023-03-04T16:41:49.444Z,17.33
2023-03-04T16:44:17.758Z,14.93
2023-03-04T16:46:46.291Z,22.60
2023-03-04T16:49:14.682Z,29.43
2023-03-04T16:51:46.806Z,19.23
2023-03-04T16:54:20.164Z,26.00
2023-03-04T16:56:48.490Z,31.27
2023-03-04T16:59:18.014Z,37.00
2023-03-04T17:01:46.598Z,34.27
2023-03-04T17:04:14.985Z,54.00
2023-03-04T17:06:43.656Z,36.43
2023-03-04T17:09:12.371Z,56.77
2023-03-04T17:11:42.099Z,57.93
2023-03-04T17:14:10.599Z,58.17
2023-03-04T17:16:38.916Z,67.13
2023-03-04T17:19:07.241Z,83.80
2023-03-04T17:21:35.575Z,69.03
2023-03-04T17:24:04.867Z,57.50
2023-03-04T17:26:33.517Z,54.03
2023-03-04T17:29:03.275Z,52.57
2023-03-04T17:31:31.597Z,58.07
2023-03-04T17:34:00.043Z,55.80
2023-03-04T17:36:28.409Z,70.13
2023-03-04T17:38:57.229Z,94.27
2023-03-04T17:41:26.715Z,80.37
2023-03-04T17:43:57.036Z,67.20
2023-03-04T17:46:30.025Z,70.70
2023-03-04T17:49:00.409Z,92.50
2023-03-04T17:51:34.075Z,70.43
2023-03-04T17:54:02.885Z,61.87
2023-03-04T17:56:34.149Z,75.93
2023-03-04T17:59:05.793Z,74.20
2023-03-04T18:01:35.717Z,66.60
2023-03-04T18:04:04.596Z,53.77
2023-03-04T18:06:33.131Z,54.50
2023-03-04T18:09:01.452Z,62.40
2023-03-04T18:11:30.101Z,44.90
2023-03-04T18:13:58.907Z,55.07
2023-03-04T18:16:29.060Z,44.40
2023-03-04T18:19:01.224Z,49.50
2023-03-04T18:21:30.670Z,45.43
2023-03-04T18:23:59.634Z,44.20
2023-03-04T18:26:28.174Z,46.40
2023-03-04T18:28:57.684Z,47.93
2023-03-04T18:31:31.653Z,55.73
2023-03-04T18:34:02.838Z,51.20
2023-03-04T18:36:31.284Z,39.33
2023-03-04T18:38:59.950Z,43.47
2023-03-04T18:41:28.816Z,38.27
2023-03-04T18:43:57.126Z,37.50
2023-03-04T18:46:34.566Z,52.13
2023-03-04T18:49:08.782Z,37.90
2023-03-04T18:51:37.137Z,35.90
2023-03-04T18:54:07.015Z,41.77
2023-03-04T18:56:40.184Z,29.70
2023-03-04T18:59:12.821Z,29.60
2023-03-04T19:01:41.641Z,32.47
2023-03-04T19:04:11.835Z,32.13
2023-03-04T19:06:40.545Z,29.87
2023-03-04T19:09:08.984Z,44.77
2023-03-04T19:11:37.335Z,36.90
2023-03-04T19:14:06.004Z,44.93
2023-03-04T19:16:34.396Z,38.17
2023-03-04T19:19:02.760Z,32.47
2023-03-04T19:21:33.955Z,39.47
2023-03-04T19:24:02.402Z,39.97
2023-03-04T19:26:30.713Z,40.87
2023-03-04T19:28:59.082Z,42.70
2023-03-04T19:31:27.430Z,52.90
2023-03-04T19:33:55.833Z,67.43
2023-03-04T19:36:25.506Z,49.07
2023-03-04T19:38:56.092Z,46.00
2023-03-04T19:41:24.826Z,49.90
2023-03-04T19:43:54.407Z,47.10
2023-03-04T19:46:23.032Z,48.43
2023-03-04T19:48:51.419Z,66.33
2023-03-04T19:51:22.054Z,47.77
2023-03-04T19:53:51.737Z,40.10
2023-03-04T19:56:22.205Z,43.63
2023-03-04T19:58:50.653Z,46.87
2023-03-04T20:01:26.057Z,38.67
2023-03-04T20:03:54.629Z,38.93
2023-03-04T20:06:24.128Z,38.00
2023-03-04T20:08:52.512Z,49.97
2023-03-04T20:11:22.323Z,43.70
2023-03-04T20:13:50.672Z,35.40
2023-03-04T20:16:19.097Z,32.90
2023-03-04T20:18:47.641Z,35.57
2023-03-04T20:21:16.110Z,41.20
2023-03-04T20:23:44.559Z,34.07
2023-03-04T20:26:13.243Z,43.27
2023-03-04T20:28:42.961Z,35.93
2023-03-04T20:31:13.034Z,34.47
2023-03-04T20:33:42.128Z,39.07
2023-03-04T20:36:10.684Z,38.07
2023-03-04T20:38:39.437Z,42.30
2023-03-04T20:41:07.874Z,42.43
2023-03-04T20:43:36.361Z,33.60
2023-03-04T20:46:28.878Z,33.17
2023-03-04T20:48:58.592Z,35.20
2023-03-04T20:51:27.294Z,28.13
2023-03-04T20:53:56.668Z,31.90
2023-03-04T20:56:26.017Z,25.40
2023-03-04T20:58:55.272Z,27.43
2023-03-04T21:01:24.862Z,26.50
2023-03-04T21:03:54.997Z,28.67
2023-03-04T21:06:25.214Z,22.30
2023-03-04T21:08:53.780Z,22.23
2023-03-04T21:11:23.486Z,25.43
2023-03-04T21:13:56.522Z,21.27
2023-03-04T21:16:27.020Z,22.73
2023-03-04T21:18:57.397Z,26.63
2023-03-04T21:21:28.021Z,30.63
2023-03-04T21:23:58.265Z,28.67
2023-03-04T21:26:26.906Z,24.73
2023-03-04T21:28:55.777Z,27.97
2023-03-04T21:31:26.339Z,25.40
2023-03-04T21:33:58.760Z,26.97
2023-03-04T21:36:27.881Z,27.43
2023-03-04T21:38:56.207Z,28.20
2023-03-04T21:41:25.919Z,26.60
2023-03-04T21:43:54.465Z,23.73
2023-03-04T21:46:23.508Z,28.83
2023-03-04T21:48:51.812Z,23.37
2023-03-04T21:51:21.528Z,26.30
2023-03-04T21:53:49.968Z,28.20
2023-03-04T21:56:18.311Z,29.33
2023-03-04T21:58:46.648Z,31.03
2023-03-04T22:01:16.997Z,30.00
2023-03-04T22:03:45.689Z,28.30
2023-03-04T22:06:14.315Z,31.07
2023-03-04T22:08:44.270Z,34.57
2023-03-04T22:11:13.147Z,33.07
2023-03-04T22:13:41.907Z,29.43
2023-03-04T22:16:11.175Z,28.60
2023-03-04T22:18:40.844Z,35.80
2023-03-04T22:21:11.267Z,40.37
2023-03-04T22:23:40.005Z,32.63
2023-03-04T22:26:12.465Z,32.87
2023-03-04T22:28:41.410Z,34.53
2023-03-04T22:31:17.608Z,34.73
2023-03-04T22:33:46.390Z,33.43
2023-03-04T22:36:14.843Z,38.87
2023-03-04T22:38:44.634Z,36.90
2023-03-04T22:41:19.097Z,36.50
2023-03-04T22:43:47.865Z,44.20
2023-03-04T22:46:18.097Z,48.63
2023-03-04T22:48:46.477Z,38.17
2023-03-04T22:51:14.961Z,40.67
2023-03-04T22:53:44.019Z,39.20
2023-03-04T22:56:13.999Z,40.80
2023-03-04T22:58:44.885Z,47.27
2023-03-04T23:01:14.709Z,38.10
2023-03-04T23:03:44.605Z,34.90
2023-03-04T23:06:14.718Z,26.17
2023-03-04T23:08:46.008Z,26.97
2023-03-04T23:11:16.402Z,26.60
2023-03-04T23:13:46.128Z,18.50
2023-03-04T23:16:15.356Z,17.97
2023-03-04T23:18:46.677Z,19.83
2023-03-04T23:21:16.917Z,15.23
2023-03-04T23:23:45.293Z,15.77
2023-03-04T23:26:18.088Z,20.23
2023-03-04T23:28:48.134Z,10.73
2023-03-04T23:31:16.848Z,13.37
2023-03-04T23:33:46.932Z,12.50
2023-03-04T23:36:17.328Z,12.13
2023-03-04T23:38:47.013Z,14.67
2023-03-04T23:41:16.534Z,12.07
2023-03-04T23:43:45.069Z,13.20
2023-03-04T23:46:15.162Z,13.20
2023-03-04T23:48:46.981Z,12.80
2023-03-04T23:51:15.998Z,16.63
2023-03-04T23:53:44.803Z,15.93
2023-03-04T23:56:14.626Z,13.00
2023-03-04T23:58:43.665Z,17.67
